createdAt,value
2023-03-17T00:01:09.811Z,3.95
2023-03-17T00:04:13.561Z,4.70
2023-03-17T00:07:18.281Z,3.80
2023-03-17T00:10:23.354Z,3.88
2023-03-17T00:13:26.459Z,6.22
2023-03-17T00:16:34.381Z,6.13
2023-03-17T00:19:37.191Z,4.28
2023-03-17T00:22:40.916Z,5.00
2023-03-17T00:25:45.336Z,2.83
2023-03-17T00:28:48.465Z,2.92
2023-03-17T00:31:52.677Z,3.13
2023-03-17T00:34:58.720Z,2.70
2023-03-17T00:38:01.516Z,4.95
2023-03-17T00:41:06.396Z,4.97
2023-03-17T00:44:09.736Z,4.13
2023-03-17T00:47:15.004Z,2.78
2023-03-17T00:50:22.352Z,3.80
2023-03-17T00:53:25.112Z,3.15
2023-03-17T00:56:27.969Z,4.53
2023-03-17T00:59:37.976Z,2.40
2023-03-17T01:02:42.175Z,3.05
2023-03-17T01:05:45.029Z,2.75
2023-03-17T01:08:47.913Z,4.60
2023-03-17T01:11:50.756Z,4.63
2023-03-17T01:14:53.776Z,3.78
2023-03-17T01:17:58.693Z,3.53
2023-03-17T01:21:01.518Z,4.30
2023-03-17T01:24:04.758Z,4.20
2023-03-17T01:27:07.908Z,3.88
2023-03-17T01:30:24.040Z,4.00
2023-03-17T01:33:28.238Z,4.65
2023-03-17T01:36:31.034Z,3.28
2023-03-17T01:39:34.308Z,4.90
2023-03-17T01:42:37.149Z,2.97
2023-03-17T01:46:27.395Z,2.70
2023-03-17T01:49:35.609Z,4.70
2023-03-17T01:52:39.862Z,3.92
2023-03-17T01:55:44.866Z,3.38
2023-03-17T01:58:53.005Z,4.05
2023-03-17T02:02:02.278Z,2.95
2023-03-17T02:05:09.675Z,2.50
2023-03-17T02:08:14.058Z,2.90
2023-03-17T02:11:17.002Z,5.15
2023-03-17T02:14:20.467Z,2.67
2023-03-17T02:17:26.105Z,2.75
2023-03-17T02:21:02.688Z,6.95
2023-03-17T02:24:12.220Z,1.88
2023-03-17T02:27:18.666Z,3.10
2023-03-17T02:30:24.331Z,3.45
2023-03-17T02:33:27.645Z,4.30
2023-03-17T02:36:31.143Z,2.30
2023-03-17T02:39:35.521Z,3.60
2023-03-17T02:42:39.311Z,4.13
2023-03-17T02:45:43.549Z,3.78
2023-03-17T02:48:48.455Z,3.80
2023-03-17T02:51:52.128Z,5.38
2023-03-17T02:54:56.343Z,2.65
2023-03-17T02:57:59.205Z,3.83
2023-03-17T03:01:02.275Z,4.32
2023-03-17T03:04:05.229Z,2.78
2023-03-17T03:07:08.308Z,4.10
2023-03-17T03:10:13.308Z,2.03
2023-03-17T03:13:16.336Z,4.00
2023-03-17T03:16:19.221Z,5.28
2023-03-17T03:19:22.747Z,2.65
2023-03-17T03:22:25.580Z,3.20
2023-03-17T03:25:29.733Z,3.85
2023-03-17T03:28:32.566Z,4.32
2023-03-17T03:31:35.441Z,3.75
2023-03-17T03:34:38.356Z,3.13
2023-03-17T03:37:41.641Z,4.05
2023-03-17T03:40:46.253Z,3.22
2023-03-17T03:43:49.092Z,3.13
2023-03-17T03:46:51.985Z,3.08
2023-03-17T03:49:54.876Z,2.85
2023-03-17T03:52:58.567Z,3.03
2023-03-17T03:56:02.951Z,3.15
2023-03-17T03:59:06.185Z,4.30
2023-03-17T04:02:09.754Z,4.72
2023-03-17T04:05:13.703Z,4.72
2023-03-17T04:08:16.592Z,4.10
2023-03-17T04:11:21.070Z,4.88
2023-03-17T04:14:23.913Z,3.28
2023-03-17T04:17:26.685Z,3.58
2023-03-17T04:20:29.896Z,3.90
2023-03-17T04:23:32.878Z,2.92
2023-03-17T04:26:37.137Z,4.07
2023-03-17T04:29:40.020Z,3.28
2023-03-17T04:32:43.223Z,3.78
2023-03-17T04:35:46.314Z,3.05
2023-03-17T04:38:49.125Z,2.88
2023-03-17T04:41:53.296Z,3.20
2023-03-17T04:44:56.029Z,3.17
2023-03-17T04:47:59.010Z,2.58
2023-03-17T04:51:01.928Z,5.35
2023-03-17T04:54:06.034Z,3.80
2023-03-17T04:57:10.364Z,3.22
2023-03-17T05:00:15.505Z,3.08
2023-03-17T05:03:26.625Z,3.53
2023-03-17T05:06:30.800Z,3.00
2023-03-17T05:09:33.580Z,4.22
2023-03-17T05:12:37.812Z,3.72
2023-03-17T05:15:41.303Z,3.40
2023-03-17T05:18:44.761Z,3.33
2023-03-17T05:21:47.627Z,3.60
2023-03-17T05:24:50.561Z,5.38
2023-03-17T05:27:54.666Z,4.82
2023-03-17T05:30:57.666Z,4.43
2023-03-17T05:34:00.613Z,6.22
2023-03-17T05:37:03.360Z,4.78
2023-03-17T05:40:06.720Z,6.05
2023-03-17T05:43:11.481Z,5.85
2023-03-17T05:46:14.603Z,3.13
2023-03-17T05:49:18.718Z,8.25
2023-03-17T05:52:22.100Z,5.25
2023-03-17T05:55:24.976Z,5.90
2023-03-17T05:58:29.343Z,4.78
2023-03-17T06:01:32.465Z,6.05
2023-03-17T06:04:35.228Z,4.97
2023-03-17T06:07:51.676Z,10.68
2023-03-17T06:10:58.197Z,5.20
2023-03-17T06:14:02.349Z,9.00
2023-03-17T06:17:05.245Z,5.22
2023-03-17T06:20:09.429Z,6.53
2023-03-17T06:23:12.369Z,4.38
2023-03-17T06:26:15.283Z,6.82
2023-03-17T06:29:19.819Z,5.22
2023-03-17T06:32:22.786Z,5.03
2023-03-17T06:35:25.787Z,7.40
2023-03-17T06:38:28.768Z,3.85
2023-03-17T06:41:31.653Z,6.45
2023-03-17T06:44:36.285Z,6.57
2023-03-17T06:47:39.777Z,5.78
2023-03-17T06:50:42.703Z,5.07
2023-03-17T06:53:45.724Z,5.40
2023-03-17T06:56:48.681Z,4.88
2023-03-17T06:59:52.817Z,5.80
2023-03-17T07:02:55.724Z,5.93
2023-03-17T07:05:58.750Z,5.65
2023-03-17T07:09:02.452Z,6.93
2023-03-17T07:12:06.038Z,4.43
2023-03-17T07:15:12.429Z,5.85
2023-03-17T07:18:15.531Z,4.35
2023-03-17T07:21:18.398Z,5.88
2023-03-17T07:24:21.178Z,4.18
2023-03-17T07:27:25.370Z,5.90
2023-03-17T07:30:29.669Z,5.63
2023-03-17T07:33:33.823Z,7.03
2023-03-17T07:36:36.630Z,6.30
2023-03-17T07:39:40.006Z,5.00
2023-03-17T07:42:43.502Z,6.55
2023-03-17T07:45:47.901Z,7.30
2023-03-17T07:48:51.190Z,8.70
2023-03-17T07:51:54.016Z,13.02
2023-03-17T07:54:58.179Z,15.15
2023-03-17T07:58:01.245Z,8.95
2023-03-17T08:01:05.872Z,8.30
2023-03-17T08:04:10.864Z,9.70
2023-03-17T08:07:14.638Z,7.32
2023-03-17T08:10:18.306Z,16.98
2023-03-17T08:13:21.131Z,7.60
2023-03-17T08:16:25.335Z,6.82
2023-03-17T08:19:28.143Z,9.85
2023-03-17T08:22:30.942Z,13.40
2023-03-17T08:25:33.711Z,9.45
2023-03-17T08:28:36.566Z,12.02
2023-03-17T08:31:41.014Z,9.45
2023-03-17T08:34:44.444Z,4.97
2023-03-17T08:37:48.136Z,7.05
2023-03-17T08:40:51.257Z,6.40
2023-03-17T08:43:54.377Z,8.90
2023-03-17T08:46:58.582Z,4.80
2023-03-17T08:50:01.717Z,4.63
2023-03-17T08:53:04.477Z,6.28
2023-03-17T08:56:08.430Z,7.90
2023-03-17T08:59:12.461Z,6.10
2023-03-17T09:02:16.834Z,6.57
2023-03-17T09:05:20.680Z,4.38
2023-03-17T09:08:23.982Z,6.55
2023-03-17T09:11:29.646Z,6.65
2023-03-17T09:14:42.618Z,9.15
2023-03-17T09:17:47.557Z,5.45
2023-03-17T09:20:50.553Z,5.25
2023-03-17T09:23:53.460Z,6.88
2023-03-17T09:26:59.757Z,4.78
2023-03-17T09:30:02.852Z,3.97
2023-03-17T09:33:07.085Z,8.18
2023-03-17T09:36:13.591Z,5.05
2023-03-17T09:39:16.484Z,6.63
2023-03-17T09:42:34.677Z,4.55
2023-03-17T09:45:41.712Z,4.88
2023-03-17T09:48:54.387Z,4.13
2023-03-17T09:51:57.274Z,5.55
2023-03-17T09:55:01.169Z,4.45
2023-03-17T09:58:04.961Z,7.55
2023-03-17T10:01:12.812Z,5.90
2023-03-17T10:04:19.072Z,5.68
2023-03-17T10:07:28.192Z,5.38
2023-03-17T10:10:38.365Z,3.65
2023-03-17T10:13:53.193Z,6.05
2023-03-17T10:17:01.807Z,7.13
2023-03-17T10:20:10.341Z,4.68
2023-03-17T10:23:16.498Z,6.20
2023-03-17T10:26:30.147Z,8.13
2023-03-17T10:29:33.097Z,4.97
2023-03-17T10:32:40.271Z,5.57
2023-03-17T10:35:44.995Z,4.10
2023-03-17T10:38:54.160Z,4.35
2023-03-17T10:41:59.027Z,4.30
2023-03-17T10:45:07.555Z,5.90
2023-03-17T10:48:11.063Z,3.97
2023-03-17T10:51:23.814Z,4.57
2023-03-17T10:54:26.684Z,5.32
2023-03-17T10:57:31.195Z,4.32
2023-03-17T11:00:37.249Z,5.13
2023-03-17T11:03:41.776Z,9.13
2023-03-17T11:06:47.232Z,9.70
2023-03-17T11:09:51.617Z,17.80
2023-03-17T11:12:58.743Z,19.73
2023-03-17T11:16:18.682Z,25.48
2023-03-17T11:19:28.593Z,31.80
2023-03-17T11:22:38.847Z,31.73
2023-03-17T11:25:45.021Z,28.92
2023-03-17T11:28:52.887Z,31.17
2023-03-17T11:32:01.484Z,33.67
2023-03-17T11:35:25.021Z,32.80
2023-03-17T11:38:31.408Z,33.15
2023-03-17T11:41:46.715Z,29.23
2023-03-17T11:45:11.189Z,30.13
2023-03-17T11:48:23.624Z,27.23
2023-03-17T11:51:33.226Z,26.52
2023-03-17T11:54:47.023Z,29.60
2023-03-17T11:57:56.752Z,26.10
2023-03-17T12:01:02.053Z,32.58
2023-03-17T12:04:12.198Z,30.27
2023-03-17T12:07:20.718Z,30.83
2023-03-17T12:10:28.696Z,26.80
2023-03-17T12:13:40.213Z,23.55
2023-03-17T12:16:49.360Z,29.38
2023-03-17T12:20:06.691Z,28.80
2023-03-17T12:23:17.753Z,30.50
2023-03-17T12:26:31.201Z,44.72
2023-03-17T12:29:43.663Z,39.58
2023-03-17T12:32:55.024Z,40.67
2023-03-17T12:35:59.172Z,35.55
2023-03-17T12:39:09.255Z,38.53
2023-03-17T12:42:25.284Z,32.42
2023-03-17T12:45:46.071Z,38.92
2023-03-17T12:49:04.356Z,31.15
2023-03-17T12:52:37.442Z,38.25
2023-03-17T12:55:40.484Z,44.25
2023-03-17T12:58:47.569Z,31.70
2023-03-17T13:01:58.540Z,32.78
2023-03-17T13:05:06.349Z,38.50
2023-03-17T13:08:15.870Z,30.40
2023-03-17T13:11:27.145Z,27.98
2023-03-17T13:14:42.649Z,30.88
2023-03-17T13:17:45.447Z,39.13
2023-03-17T13:21:09.127Z,31.52
2023-03-17T13:24:41.934Z,35.03
2023-03-17T13:27:48.388Z,33.28
2023-03-17T13:31:10.177Z,27.13
2023-03-17T13:34:16.232Z,28.55
2023-03-17T13:37:28.231Z,35.15
2023-03-17T13:40:40.480Z,33.50
2023-03-17T13:44:02.352Z,40.70
2023-03-17T13:47:29.516Z,30.73
2023-03-17T13:50:34.126Z,27.35
2023-03-17T13:53:41.235Z,28.42
2023-03-17T13:56:49.087Z,31.60
2023-03-17T14:00:13.765Z,26.27
2023-03-17T14:03:21.618Z,30.70
2023-03-17T14:06:31.286Z,22.58
2023-03-17T14:09:38.859Z,23.73
2023-03-17T14:12:49.208Z,24.27
2023-03-17T14:15:57.399Z,25.70
2023-03-17T14:19:12.833Z,26.77
2023-03-17T14:22:25.344Z,25.23
2023-03-17T14:25:33.482Z,21.30
2023-03-17T14:28:36.910Z,27.48
2023-03-17T14:31:39.741Z,19.98
2023-03-17T14:34:45.798Z,20.42
2023-03-17T14:37:48.561Z,23.17
2023-03-17T14:41:00.235Z,34.15
2023-03-17T14:44:03.243Z,22.77
2023-03-17T14:47:10.675Z,20.85
2023-03-17T14:50:22.026Z,23.30
2023-03-17T14:53:26.370Z,22.80
2023-03-17T14:56:36.067Z,27.50
2023-03-17T14:59:41.732Z,23.00
2023-03-17T15:02:56.161Z,26.05
2023-03-17T15:09:27.826Z,21.23
2023-03-17T15:12:32.091Z,21.02
2023-03-17T15:15:38.455Z,22.02
2023-03-17T15:18:41.353Z,21.63
2023-03-17T15:21:45.636Z,17.67
2023-03-17T15:24:59.116Z,17.00
2023-03-17T15:28:01.964Z,21.13
2023-03-17T15:31:13.760Z,20.10
2023-03-17T15:34:16.571Z,18.23
2023-03-17T15:37:22.260Z,19.67
2023-03-17T15:40:25.247Z,21.08
2023-03-17T15:43:28.041Z,21.58
2023-03-17T15:46:32.529Z,16.17
2023-03-17T15:49:35.955Z,15.93
2023-03-17T15:52:40.201Z,19.27
2023-03-17T15:55:42.940Z,19.27
2023-03-17T15:58:47.902Z,18.33
2023-03-17T16:01:50.848Z,18.85
2023-03-17T16:04:54.138Z,18.50
2023-03-17T16:07:58.691Z,20.08
2023-03-17T16:11:01.728Z,15.10
2023-03-17T16:14:04.583Z,12.85
2023-03-17T16:17:16.758Z,18.33
2023-03-17T16:20:22.372Z,12.20
2023-03-17T16:23:28.766Z,18.17
2023-03-17T16:26:31.665Z,10.80
2023-03-17T16:29:34.455Z,10.43
2023-03-17T16:32:37.264Z,15.15
2023-03-17T16:35:40.210Z,11.13
2023-03-17T16:38:45.059Z,13.70
2023-03-17T16:41:49.081Z,13.38
2023-03-17T16:44:52.055Z,9.65
2023-03-17T16:47:55.609Z,11.23
2023-03-17T16:50:59.436Z,8.77
2023-03-17T16:54:03.773Z,12.07
2023-03-17T16:57:07.965Z,10.10
2023-03-17T17:00:17.960Z,12.05
2023-03-17T17:03:20.896Z,11.40
2023-03-17T17:06:24.739Z,13.50
2023-03-17T17:09:28.932Z,8.55
2023-03-17T17:12:31.676Z,6.97
2023-03-17T17:15:36.383Z,8.65
2023-03-17T17:18:39.170Z,8.75
2023-03-17T17:21:41.976Z,6.72
2023-03-17T17:24:46.136Z,8.60
2023-03-17T17:27:49.773Z,7.68
2023-03-17T17:30:53.738Z,6.57
2023-03-17T17:33:56.521Z,5.28
2023-03-17T17:36:59.480Z,7.93
2023-03-17T17:40:03.864Z,8.38
2023-03-17T17:43:06.730Z,7.05
2023-03-17T17:46:17.784Z,7.68
2023-03-17T17:49:21.338Z,7.55
2023-03-17T17:52:24.244Z,5.93
2023-03-17T17:55:28.558Z,6.80
2023-03-17T17:58:31.473Z,6.35
2023-03-17T18:01:34.279Z,7.63
2023-03-17T18:04:37.276Z,9.02
2023-03-17T18:07:40.702Z,8.40
2023-03-17T18:10:44.913Z,4.75
2023-03-17T18:13:47.764Z,9.23
2023-03-17T18:16:51.086Z,9.82
2023-03-17T18:19:54.079Z,8.73
2023-03-17T18:22:56.922Z,4.45
2023-03-17T18:26:02.048Z,10.20
2023-03-17T18:29:04.876Z,10.05
2023-03-17T18:32:08.892Z,7.28
2023-03-17T18:35:16.883Z,9.75
2023-03-17T18:38:19.760Z,9.93
2023-03-17T18:41:24.231Z,7.90
2023-03-17T18:44:27.043Z,13.55
2023-03-17T18:47:29.826Z,9.30
2023-03-17T18:50:33.060Z,5.25
2023-03-17T18:53:36.777Z,11.65
2023-03-17T18:56:41.061Z,5.38
2023-03-17T18:59:44.084Z,8.07
2023-03-17T19:02:47.529Z,7.13
2023-03-17T19:05:51.636Z,5.32
2023-03-17T19:08:54.461Z,8.80
2023-03-17T19:11:58.662Z,8.05
2023-03-17T19:15:01.774Z,8.65
2023-03-17T19:18:04.963Z,6.75
2023-03-17T19:21:08.491Z,11.70
2023-03-17T19:24:12.413Z,5.30
2023-03-17T19:27:17.511Z,10.50
2023-03-17T19:30:20.497Z,5.18
2023-03-17T19:33:23.597Z,4.82
2023-03-17T19:36:26.489Z,7.78
2023-03-17T19:39:31.301Z,8.93
2023-03-17T19:42:35.520Z,4.13
2023-03-17T19:45:38.445Z,6.30
2023-03-17T19:48:42.018Z,7.00
2023-03-17T19:51:45.308Z,8.23
2023-03-17T19:54:48.672Z,9.98
2023-03-17T19:57:53.238Z,6.63
2023-03-17T20:00:56.339Z,7.75
2023-03-17T20:03:59.437Z,4.65
2023-03-17T20:07:02.255Z,6.00
2023-03-17T20:10:06.554Z,5.03
2023-03-17T20:13:10.826Z,4.38
2023-03-17T20:16:13.642Z,3.33
2023-03-17T20:19:16.596Z,4.78
2023-03-17T20:22:19.541Z,4.53
2023-03-17T20:25:22.594Z,5.75
2023-03-17T20:28:29.512Z,5.03
2023-03-17T20:31:33.815Z,4.13
2023-03-17T20:34:36.737Z,6.63
2023-03-17T20:37:39.955Z,8.68
2023-03-17T20:40:43.387Z,2.97
2023-03-17T20:43:48.103Z,4.90
2023-03-17T20:46:51.594Z,6.07
2023-03-17T20:49:57.839Z,4.70
2023-03-17T20:53:01.567Z,3.97
2023-03-17T20:56:04.852Z,5.72
2023-03-17T20:59:09.760Z,7.72
2023-03-17T21:02:16.875Z,10.57
2023-03-17T21:05:21.905Z,5.63
2023-03-17T21:08:24.805Z,5.53
2023-03-17T21:11:27.664Z,9.05
2023-03-17T21:14:31.835Z,4.78
2023-03-17T21:17:35.379Z,6.32
2023-03-17T21:20:38.260Z,5.00
2023-03-17T21:23:41.752Z,5.57
2023-03-17T21:26:44.618Z,5.53
2023-03-17T21:29:49.200Z,6.63
2023-03-17T21:32:53.551Z,4.88
2023-03-17T21:35:57.939Z,6.18
2023-03-17T21:39:00.980Z,6.25
2023-03-17T21:42:04.238Z,14.35
2023-03-17T21:45:09.722Z,11.00
2023-03-17T21:48:12.956Z,9.68
2023-03-17T21:51:16.187Z,7.55
2023-03-17T21:54:19.429Z,12.13
2023-03-17T21:57:22.836Z,7.95
2023-03-17T22:00:29.012Z,9.10
2023-03-17T22:03:39.909Z,6.32
2023-03-17T22:06:43.330Z,9.07
2023-03-17T22:09:46.198Z,9.52
2023-03-17T22:12:49.028Z,7.53
2023-03-17T22:15:53.544Z,5.28
2023-03-17T22:18:56.532Z,14.93
2023-03-17T22:21:59.450Z,6.82
2023-03-17T22:25:05.097Z,5.38
2023-03-17T22:28:08.631Z,5.72
2023-03-17T22:31:14.433Z,7.88
2023-03-17T22:34:17.329Z,7.75
2023-03-17T22:37:20.172Z,4.32
2023-03-17T22:40:22.956Z,4.78
2023-03-17T22:43:25.840Z,7.07
2023-03-17T22:46:30.336Z,8.27
2023-03-17T22:49:33.139Z,7.13
2023-03-17T22:52:37.226Z,11.48
2023-03-17T22:55:40.133Z,4.35
2023-03-17T22:58:43.647Z,6.75
2023-03-17T23:01:47.830Z,8.90
2023-03-17T23:04:51.100Z,5.25
2023-03-17T23:07:54.036Z,4.72
2023-03-17T23:11:01.769Z,3.33
2023-03-17T23:14:05.419Z,6.50
2023-03-17T23:17:09.728Z,4.47
2023-03-17T23:20:13.663Z,6.88
2023-03-17T23:23:17.384Z,6.53
2023-03-17T23:26:20.306Z,4.18
2023-03-17T23:29:24.389Z,5.15
2023-03-17T23:32:29.602Z,4.32
2023-03-17T23:35:33.333Z,5.80
2023-03-17T23:38:36.552Z,6.78
2023-03-17T23:41:39.483Z,7.30
2023-03-17T23:44:42.771Z,4.55
2023-03-17T23:47:48.285Z,7.93
2023-03-17T23:50:53.213Z,7.57
2023-03-17T23:53:56.064Z,3.53
2023-03-17T23:56:58.896Z,4.38
